sensor_id;sensor_type;location;lat;lon;timestamp;temperature;humidity
57576;DHT22;43412;-33.800;150.804;2022-12-18T00:03:48;23.80;89.40
57576;DHT22;43412;-33.800;150.804;2022-12-18T00:06:15;24.30;89.40
57576;DHT22;43412;-33.800;150.804;2022-12-18T00:08:42;25.00;88.00
57576;DHT22;43412;-33.800;150.804;2022-12-18T00:11:16;25.40;88.10
57576;DHT22;43412;-33.800;150.804;2022-12-18T00:13:43;25.60;86.30
57576;DHT22;43412;-33.800;150.804;2022-12-18T00:16:14;25.00;85.80
57576;DHT22;43412;-33.800;150.804;2022-12-18T00:18:42;24.50;86.50
57576;DHT22;43412;-33.800;150.804;2022-12-18T00:21:09;24.00;87.90
57576;DHT22;43412;-33.800;150.804;2022-12-18T00:23:36;23.80;88.70
57576;DHT22;43412;-33.800;150.804;2022-12-18T00:26:05;24.50;89.30
57576;DHT22;43412;-33.800;150.804;2022-12-18T00:28:32;25.30;87.80
57576;DHT22;43412;-33.800;150.804;2022-12-18T00:31:05;25.90;86.60
57576;DHT22;43412;-33.800;150.804;2022-12-18T00:33:32;26.10;85.60
57576;DHT22;43412;-33.800;150.804;2022-12-18T00:36:03;25.90;85.50
57576;DHT22;43412;-33.800;150.804;2022-12-18T00:38:30;25.30;85.70
57576;DHT22;43412;-33.800;150.804;2022-12-18T00:40:56;24.70;88.10
57576;DHT22;43412;-33.800;150.804;2022-12-18T00:43:23;24.30;88.60
57576;DHT22;43412;-33.800;150.804;2022-12-18T00:45:50;24.20;88.60
57576;DHT22;43412;-33.800;150.804;2022-12-18T00:48:16;24.20;88.70
57576;DHT22;43412;-33.800;150.804;2022-12-18T00:50:43;24.20;88.90
57576;DHT22;43412;-33.800;150.804;2022-12-18T00:53:10;24.50;89.10
57576;DHT22;43412;-33.800;150.804;2022-12-18T00:55:37;24.50;90.00
57576;DHT22;43412;-33.800;150.804;2022-12-18T00:58:05;24.70;87.40
57576;DHT22;43412;-33.800;150.804;2022-12-18T01:00:32;24.60;87.40
57576;DHT22;43412;-33.800;150.804;2022-12-18T01:02:59;25.10;87.40
57576;DHT22;43412;-33.800;150.804;2022-12-18T01:05:25;25.50;86.20
57576;DHT22;43412;-33.800;150.804;2022-12-18T01:07:52;25.40;85.50
57576;DHT22;43412;-33.800;150.804;2022-12-18T01:10:19;25.10;85.50
57576;DHT22;43412;-33.800;150.804;2022-12-18T01:12:46;24.70;86.80
57576;DHT22;43412;-33.800;150.804;2022-12-18T01:15:13;24.40;87.30
57576;DHT22;43412;-33.800;150.804;2022-12-18T01:17:40;24.30;88.10
57576;DHT22;43412;-33.800;150.804;2022-12-18T01:20:07;24.10;88.30
57576;DHT22;43412;-33.800;150.804;2022-12-18T01:22:34;23.60;88.50
57576;DHT22;43412;-33.800;150.804;2022-12-18T01:25:02;23.20;89.20
57576;DHT22;43412;-33.800;150.804;2022-12-18T01:27:30;22.50;91.40
57576;DHT22;43412;-33.800;150.804;2022-12-18T01:29:56;22.00;92.60
57576;DHT22;43412;-33.800;150.804;2022-12-18T01:32:23;21.80;92.90
57576;DHT22;43412;-33.800;150.804;2022-12-18T01:34:50;21.60;93.10
57576;DHT22;43412;-33.800;150.804;2022-12-18T01:37:16;21.70;93.40
57576;DHT22;43412;-33.800;150.804;2022-12-18T01:39:43;22.00;93.30
57576;DHT22;43412;-33.800;150.804;2022-12-18T01:42:13;22.90;92.30
57576;DHT22;43412;-33.800;150.804;2022-12-18T01:47:20;23.60;91.20
57576;DHT22;43412;-33.800;150.804;2022-12-18T01:49:48;23.00;90.20
57576;DHT22;43412;-33.800;150.804;2022-12-18T01:52:14;22.60;90.80
57576;DHT22;43412;-33.800;150.804;2022-12-18T01:54:42;22.60;91.20
57576;DHT22;43412;-33.800;150.804;2022-12-18T01:57:09;23.40;91.00
57576;DHT22;43412;-33.800;150.804;2022-12-18T01:59:36;23.90;90.10
57576;DHT22;43412;-33.800;150.804;2022-12-18T02:02:03;23.90;89.30
57576;DHT22;43412;-33.800;150.804;2022-12-18T02:04:30;23.80;89.20
57576;DHT22;43412;-33.800;150.804;2022-12-18T02:09:48;23.30;90.30
57576;DHT22;43412;-33.800;150.804;2022-12-18T02:12:19;23.10;91.90
57576;DHT22;43412;-33.800;150.804;2022-12-18T02:17:20;22.10;90.70
57576;DHT22;43412;-33.800;150.804;2022-12-18T02:22:27;21.40;92.30
57576;DHT22;43412;-33.800;150.804;2022-12-18T02:27:35;21.00;92.70
57576;DHT22;43412;-33.800;150.804;2022-12-18T02:30:03;20.80;92.50
57576;DHT22;43412;-33.800;150.804;2022-12-18T02:32:31;20.80;92.20
57576;DHT22;43412;-33.800;150.804;2022-12-18T02:35:00;20.90;92.00
57576;DHT22;43412;-33.800;150.804;2022-12-18T02:37:28;21.10;91.90
57576;DHT22;43412;-33.800;150.804;2022-12-18T02:39:56;21.30;91.60
57576;DHT22;43412;-33.800;150.804;2022-12-18T02:42:24;21.40;91.10
57576;DHT22;43412;-33.800;150.804;2022-12-18T02:44:52;21.40;90.50
57576;DHT22;43412;-33.800;150.804;2022-12-18T02:47:22;21.60;90.30
57576;DHT22;43412;-33.800;150.804;2022-12-18T02:49:57;22.00;90.30
57576;DHT22;43412;-33.800;150.804;2022-12-18T02:55:13;22.70;88.00
57576;DHT22;43412;-33.800;150.804;2022-12-18T02:57:49;23.50;88.40
57576;DHT22;43412;-33.800;150.804;2022-12-18T03:00:18;23.80;86.20
57576;DHT22;43412;-33.800;150.804;2022-12-18T03:05:17;24.10;85.70
57576;DHT22;43412;-33.800;150.804;2022-12-18T03:07:47;24.10;85.20
57576;DHT22;43412;-33.800;150.804;2022-12-18T03:10:16;24.20;85.10
57576;DHT22;43412;-33.800;150.804;2022-12-18T03:12:49;24.20;83.90
57576;DHT22;43412;-33.800;150.804;2022-12-18T03:15:39;24.20;83.40
57576;DHT22;43412;-33.800;150.804;2022-12-18T03:18:06;24.20;82.90
57576;DHT22;43412;-33.800;150.804;2022-12-18T03:20:35;24.40;83.40
57576;DHT22;43412;-33.800;150.804;2022-12-18T03:23:10;24.60;82.70
57576;DHT22;43412;-33.800;150.804;2022-12-18T03:25:39;25.00;83.30
57576;DHT22;43412;-33.800;150.804;2022-12-18T03:28:07;25.80;83.20
57576;DHT22;43412;-33.800;150.804;2022-12-18T03:30:35;26.50;81.90
57576;DHT22;43412;-33.800;150.804;2022-12-18T03:35:40;27.10;79.10
57576;DHT22;43412;-33.800;150.804;2022-12-18T03:38:08;26.70;79.40
57576;DHT22;43412;-33.800;150.804;2022-12-18T03:41:19;26.30;80.00
57576;DHT22;43412;-33.800;150.804;2022-12-18T03:46:01;25.90;80.00
57576;DHT22;43412;-33.800;150.804;2022-12-18T03:48:33;25.80;80.20
57576;DHT22;43412;-33.800;150.804;2022-12-18T03:51:07;25.70;81.20
57576;DHT22;43412;-33.800;150.804;2022-12-18T03:53:47;25.70;81.20
57576;DHT22;43412;-33.800;150.804;2022-12-18T03:56:16;25.60;80.80
57576;DHT22;43412;-33.800;150.804;2022-12-18T03:58:43;25.30;81.20
57576;DHT22;43412;-33.800;150.804;2022-12-18T04:01:10;24.90;80.60
57576;DHT22;43412;-33.800;150.804;2022-12-18T04:03:39;24.70;82.10
57576;DHT22;43412;-33.800;150.804;2022-12-18T04:06:08;24.60;82.20
57576;DHT22;43412;-33.800;150.804;2022-12-18T04:08:35;24.50;82.20
57576;DHT22;43412;-33.800;150.804;2022-12-18T04:11:02;24.60;82.40
57576;DHT22;43412;-33.800;150.804;2022-12-18T04:13:31;24.60;82.70
57576;DHT22;43412;-33.800;150.804;2022-12-18T04:15:58;24.70;81.90
57576;DHT22;43412;-33.800;150.804;2022-12-18T04:18:25;24.70;82.20
57576;DHT22;43412;-33.800;150.804;2022-12-18T04:20:52;24.60;82.50
57576;DHT22;43412;-33.800;150.804;2022-12-18T04:23:18;24.50;83.40
57576;DHT22;43412;-33.800;150.804;2022-12-18T04:25:46;24.50;82.70
57576;DHT22;43412;-33.800;150.804;2022-12-18T04:28:13;24.30;82.60
57576;DHT22;43412;-33.800;150.804;2022-12-18T04:30:39;24.10;84.10
57576;DHT22;43412;-33.800;150.804;2022-12-18T04:33:10;23.90;84.20
57576;DHT22;43412;-33.800;150.804;2022-12-18T04:35:38;23.80;83.90
57576;DHT22;43412;-33.800;150.804;2022-12-18T04:38:05;23.70;84.50
57576;DHT22;43412;-33.800;150.804;2022-12-18T04:40:32;23.70;84.20
57576;DHT22;43412;-33.800;150.804;2022-12-18T04:42:59;23.60;84.50
57576;DHT22;43412;-33.800;150.804;2022-12-18T04:45:26;23.40;85.20
57576;DHT22;43412;-33.800;150.804;2022-12-18T04:47:53;23.10;86.00
57576;DHT22;43412;-33.800;150.804;2022-12-18T04:50:19;22.90;85.60
57576;DHT22;43412;-33.800;150.804;2022-12-18T04:52:46;22.70;86.40
57576;DHT22;43412;-33.800;150.804;2022-12-18T04:55:13;22.80;86.90
57576;DHT22;43412;-33.800;150.804;2022-12-18T04:57:40;22.90;86.40
57576;DHT22;43412;-33.800;150.804;2022-12-18T05:00:07;23.10;87.60
57576;DHT22;43412;-33.800;150.804;2022-12-18T05:02:34;23.60;85.20
57576;DHT22;43412;-33.800;150.804;2022-12-18T05:05:01;23.90;84.70
57576;DHT22;43412;-33.800;150.804;2022-12-18T05:07:27;24.30;84.30
57576;DHT22;43412;-33.800;150.804;2022-12-18T05:09:54;24.30;83.40
57576;DHT22;43412;-33.800;150.804;2022-12-18T05:12:21;23.90;83.40
57576;DHT22;43412;-33.800;150.804;2022-12-18T05:14:47;23.50;83.60
57576;DHT22;43412;-33.800;150.804;2022-12-18T05:17:14;23.20;84.70
57576;DHT22;43412;-33.800;150.804;2022-12-18T05:19:41;22.90;85.00
57576;DHT22;43412;-33.800;150.804;2022-12-18T05:22:08;22.80;85.20
57576;DHT22;43412;-33.800;150.804;2022-12-18T05:24:35;22.80;84.80
57576;DHT22;43412;-33.800;150.804;2022-12-18T05:27:01;22.70;84.70
57576;DHT22;43412;-33.800;150.804;2022-12-18T05:29:28;22.60;84.70
57576;DHT22;43412;-33.800;150.804;2022-12-18T05:31:55;22.30;85.00
57576;DHT22;43412;-33.800;150.804;2022-12-18T05:34:21;22.10;85.50
57576;DHT22;43412;-33.800;150.804;2022-12-18T05:36:48;22.00;85.40
57576;DHT22;43412;-33.800;150.804;2022-12-18T05:39:15;21.80;85.80
57576;DHT22;43412;-33.800;150.804;2022-12-18T05:41:41;21.80;85.90
57576;DHT22;43412;-33.800;150.804;2022-12-18T05:44:08;21.70;85.80
57576;DHT22;43412;-33.800;150.804;2022-12-18T05:46:35;21.70;86.00
57576;DHT22;43412;-33.800;150.804;2022-12-18T05:49:02;21.90;85.20
57576;DHT22;43412;-33.800;150.804;2022-12-18T05:51:35;22.20;84.80
57576;DHT22;43412;-33.800;150.804;2022-12-18T05:54:02;22.40;84.10
57576;DHT22;43412;-33.800;150.804;2022-12-18T05:56:29;22.70;83.90
57576;DHT22;43412;-33.800;150.804;2022-12-18T05:58:56;23.10;82.60
57576;DHT22;43412;-33.800;150.804;2022-12-18T06:01:24;22.90;81.50
57576;DHT22;43412;-33.800;150.804;2022-12-18T06:03:52;22.60;82.20
57576;DHT22;43412;-33.800;150.804;2022-12-18T06:06:22;22.40;82.80
57576;DHT22;43412;-33.800;150.804;2022-12-18T06:08:50;22.50;83.10
57576;DHT22;43412;-33.800;150.804;2022-12-18T06:11:18;22.70;83.30
57576;DHT22;43412;-33.800;150.804;2022-12-18T06:13:45;22.60;82.70
57576;DHT22;43412;-33.800;150.804;2022-12-18T06:16:12;22.60;83.30
57576;DHT22;43412;-33.800;150.804;2022-12-18T06:18:39;22.80;83.70
57576;DHT22;43412;-33.800;150.804;2022-12-18T06:21:06;23.00;83.50
57576;DHT22;43412;-33.800;150.804;2022-12-18T06:23:32;22.90;83.00
57576;DHT22;43412;-33.800;150.804;2022-12-18T06:26:03;22.90;83.40
57576;DHT22;43412;-33.800;150.804;2022-12-18T06:28:29;22.90;83.70
57576;DHT22;43412;-33.800;150.804;2022-12-18T06:30:56;23.00;83.80
57576;DHT22;43412;-33.800;150.804;2022-12-18T06:33:25;23.10;84.20
57576;DHT22;43412;-33.800;150.804;2022-12-18T06:35:52;23.20;84.00
57576;DHT22;43412;-33.800;150.804;2022-12-18T06:38:19;23.20;83.40
57576;DHT22;43412;-33.800;150.804;2022-12-18T06:40:45;23.10;83.70
57576;DHT22;43412;-33.800;150.804;2022-12-18T06:43:12;22.90;84.00
57576;DHT22;43412;-33.800;150.804;2022-12-18T06:45:39;22.80;84.50
57576;DHT22;43412;-33.800;150.804;2022-12-18T06:48:05;22.70;85.20
57576;DHT22;43412;-33.800;150.804;2022-12-18T06:50:32;22.60;85.00
57576;DHT22;43412;-33.800;150.804;2022-12-18T06:52:59;22.50;85.50
57576;DHT22;43412;-33.800;150.804;2022-12-18T06:55:25;22.40;85.20
57576;DHT22;43412;-33.800;150.804;2022-12-18T06:57:52;22.30;85.50
57576;DHT22;43412;-33.800;150.804;2022-12-18T07:00:19;22.30;85.70
57576;DHT22;43412;-33.800;150.804;2022-12-18T07:02:48;22.40;86.00
57576;DHT22;43412;-33.800;150.804;2022-12-18T07:05:15;22.40;85.70
57576;DHT22;43412;-33.800;150.804;2022-12-18T07:07:42;22.30;85.90
57576;DHT22;43412;-33.800;150.804;2022-12-18T07:10:09;22.20;87.00
57576;DHT22;43412;-33.800;150.804;2022-12-18T07:12:36;22.10;87.50
57576;DHT22;43412;-33.800;150.804;2022-12-18T07:15:03;22.00;87.80
57576;DHT22;43412;-33.800;150.804;2022-12-18T07:17:30;21.90;88.10
57576;DHT22;43412;-33.800;150.804;2022-12-18T07:19:56;21.80;88.10
57576;DHT22;43412;-33.800;150.804;2022-12-18T07:22:24;21.80;87.80
57576;DHT22;43412;-33.800;150.804;2022-12-18T07:24:51;21.70;87.10
57576;DHT22;43412;-33.800;150.804;2022-12-18T07:27:18;21.50;87.40
57576;DHT22;43412;-33.800;150.804;2022-12-18T07:29:44;21.40;87.70
57576;DHT22;43412;-33.800;150.804;2022-12-18T07:32:15;21.30;88.00
57576;DHT22;43412;-33.800;150.804;2022-12-18T07:34:42;21.30;87.90
57576;DHT22;43412;-33.800;150.804;2022-12-18T07:37:09;21.30;87.80
57576;DHT22;43412;-33.800;150.804;2022-12-18T07:39:36;21.20;87.10
57576;DHT22;43412;-33.800;150.804;2022-12-18T07:42:03;21.20;87.50
57576;DHT22;43412;-33.800;150.804;2022-12-18T07:44:48;21.10;86.80
57576;DHT22;43412;-33.800;150.804;2022-12-18T07:47:14;21.00;87.00
57576;DHT22;43412;-33.800;150.804;2022-12-18T07:49:41;20.90;87.50
57576;DHT22;43412;-33.800;150.804;2022-12-18T07:52:08;20.80;86.90
57576;DHT22;43412;-33.800;150.804;2022-12-18T07:54:35;20.80;87.60
57576;DHT22;43412;-33.800;150.804;2022-12-18T07:57:02;20.80;87.70
57576;DHT22;43412;-33.800;150.804;2022-12-18T07:59:29;20.80;87.50
57576;DHT22;43412;-33.800;150.804;2022-12-18T08:01:56;20.70;86.90
57576;DHT22;43412;-33.800;150.804;2022-12-18T08:04:23;20.60;87.00
57576;DHT22;43412;-33.800;150.804;2022-12-18T08:06:49;20.50;87.30
57576;DHT22;43412;-33.800;150.804;2022-12-18T08:09:16;20.30;87.40
57576;DHT22;43412;-33.800;150.804;2022-12-18T08:11:43;20.20;87.80
57576;DHT22;43412;-33.800;150.804;2022-12-18T08:14:10;20.20;88.40
57576;DHT22;43412;-33.800;150.804;2022-12-18T08:16:37;20.10;89.30
57576;DHT22;43412;-33.800;150.804;2022-12-18T08:19:04;20.00;90.10
57576;DHT22;43412;-33.800;150.804;2022-12-18T08:21:31;19.90;90.60
57576;DHT22;43412;-33.800;150.804;2022-12-18T08:23:59;19.80;90.80
57576;DHT22;43412;-33.800;150.804;2022-12-18T08:26:27;19.80;91.10
57576;DHT22;43412;-33.800;150.804;2022-12-18T08:28:54;19.80;91.60
57576;DHT22;43412;-33.800;150.804;2022-12-18T08:31:21;19.70;92.10
57576;DHT22;43412;-33.800;150.804;2022-12-18T08:33:48;19.50;92.00
57576;DHT22;43412;-33.800;150.804;2022-12-18T08:36:16;19.40;92.10
57576;DHT22;43412;-33.800;150.804;2022-12-18T08:38:43;19.30;92.20
57576;DHT22;43412;-33.800;150.804;2022-12-18T08:41:11;19.20;92.50
57576;DHT22;43412;-33.800;150.804;2022-12-18T08:43:38;19.10;92.70
57576;DHT22;43412;-33.800;150.804;2022-12-18T08:46:30;19.00;92.50
57576;DHT22;43412;-33.800;150.804;2022-12-18T08:48:58;18.90;92.10
57576;DHT22;43412;-33.800;150.804;2022-12-18T08:51:25;18.90;92.20
57576;DHT22;43412;-33.800;150.804;2022-12-18T08:53:52;18.90;91.90
57576;DHT22;43412;-33.800;150.804;2022-12-18T08:56:19;18.80;91.60
57576;DHT22;43412;-33.800;150.804;2022-12-18T08:58:45;18.70;91.70
57576;DHT22;43412;-33.800;150.804;2022-12-18T09:01:12;18.70;91.60
57576;DHT22;43412;-33.800;150.804;2022-12-18T09:03:39;18.50;91.60
57576;DHT22;43412;-33.800;150.804;2022-12-18T09:06:06;18.50;91.80
57576;DHT22;43412;-33.800;150.804;2022-12-18T09:08:33;18.40;91.90
57576;DHT22;43412;-33.800;150.804;2022-12-18T09:11:00;18.40;92.10
57576;DHT22;43412;-33.800;150.804;2022-12-18T09:13:27;18.30;92.30
57576;DHT22;43412;-33.800;150.804;2022-12-18T09:15:54;18.30;92.50
57576;DHT22;43412;-33.800;150.804;2022-12-18T09:18:22;18.20;92.60
57576;DHT22;43412;-33.800;150.804;2022-12-18T09:20:49;18.20;92.80
57576;DHT22;43412;-33.800;150.804;2022-12-18T09:23:18;18.20;92.80
57576;DHT22;43412;-33.800;150.804;2022-12-18T09:25:45;18.20;92.90
57576;DHT22;43412;-33.800;150.804;2022-12-18T09:28:16;18.20;92.90
57576;DHT22;43412;-33.800;150.804;2022-12-18T09:30:44;18.30;93.00
57576;DHT22;43412;-33.800;150.804;2022-12-18T09:33:11;18.30;93.10
57576;DHT22;43412;-33.800;150.804;2022-12-18T09:35:38;18.20;93.30
57576;DHT22;43412;-33.800;150.804;2022-12-18T09:38:05;18.20;93.30
57576;DHT22;43412;-33.800;150.804;2022-12-18T09:40:34;18.20;93.50
57576;DHT22;43412;-33.800;150.804;2022-12-18T09:43:02;18.10;93.60
57576;DHT22;43412;-33.800;150.804;2022-12-18T09:45:39;18.00;93.80
57576;DHT22;43412;-33.800;150.804;2022-12-18T09:48:09;18.00;93.90
57576;DHT22;43412;-33.800;150.804;2022-12-18T09:50:37;17.90;94.10
57576;DHT22;43412;-33.800;150.804;2022-12-18T09:53:06;17.80;94.20
57576;DHT22;43412;-33.800;150.804;2022-12-18T09:55:36;17.80;94.30
57576;DHT22;43412;-33.800;150.804;2022-12-18T09:58:14;17.80;94.50
57576;DHT22;43412;-33.800;150.804;2022-12-18T10:00:43;17.80;94.50
57576;DHT22;43412;-33.800;150.804;2022-12-18T10:03:11;17.70;94.60
57576;DHT22;43412;-33.800;150.804;2022-12-18T10:05:54;17.70;94.70
57576;DHT22;43412;-33.800;150.804;2022-12-18T10:26:31;17.10;96.30
57576;DHT22;43412;-33.800;150.804;2022-12-18T10:28:58;17.00;96.60
57576;DHT22;43412;-33.800;150.804;2022-12-18T10:31:25;16.90;96.70
57576;DHT22;43412;-33.800;150.804;2022-12-18T10:33:55;16.90;97.00
57576;DHT22;43412;-33.800;150.804;2022-12-18T10:36:23;16.80;97.00
57576;DHT22;43412;-33.800;150.804;2022-12-18T10:38:49;16.80;97.00
57576;DHT22;43412;-33.800;150.804;2022-12-18T10:44:34;16.80;96.70
57576;DHT22;43412;-33.800;150.804;2022-12-18T10:46:42;16.80;96.80
57576;DHT22;43412;-33.800;150.804;2022-12-18T10:49:18;16.80;96.80
57576;DHT22;43412;-33.800;150.804;2022-12-18T10:51:45;16.90;96.70
57576;DHT22;43412;-33.800;150.804;2022-12-18T10:54:16;17.00;96.40
57576;DHT22;43412;-33.800;150.804;2022-12-18T10:56:43;17.00;96.40
57576;DHT22;43412;-33.800;150.804;2022-12-18T10:59:13;17.10;96.10
57576;DHT22;43412;-33.800;150.804;2022-12-18T11:04:15;17.10;96.10
57576;DHT22;43412;-33.800;150.804;2022-12-18T11:06:53;17.10;96.10
57576;DHT22;43412;-33.800;150.804;2022-12-18T11:09:25;17.00;96.10
57576;DHT22;43412;-33.800;150.804;2022-12-18T11:11:55;17.00;96.20
57576;DHT22;43412;-33.800;150.804;2022-12-18T11:14:25;16.90;96.30
57576;DHT22;43412;-33.800;150.804;2022-12-18T11:16:53;16.90;96.50
57576;DHT22;43412;-33.800;150.804;2022-12-18T11:19:32;16.90;96.70
57576;DHT22;43412;-33.800;150.804;2022-12-18T11:21:59;16.90;96.80
57576;DHT22;43412;-33.800;150.804;2022-12-18T11:24:31;16.80;96.90
57576;DHT22;43412;-33.800;150.804;2022-12-18T11:26:58;16.80;97.00
57576;DHT22;43412;-33.800;150.804;2022-12-18T11:29:28;16.80;97.10
57576;DHT22;43412;-33.800;150.804;2022-12-18T11:34:58;16.70;97.30
57576;DHT22;43412;-33.800;150.804;2022-12-18T11:37:25;16.60;97.50
57576;DHT22;43412;-33.800;150.804;2022-12-18T11:39:55;16.50;97.80
57576;DHT22;43412;-33.800;150.804;2022-12-18T11:45:00;16.40;98.30
57576;DHT22;43412;-33.800;150.804;2022-12-18T11:47:29;16.50;98.30
57576;DHT22;43412;-33.800;150.804;2022-12-18T11:49:59;16.50;98.40
57576;DHT22;43412;-33.800;150.804;2022-12-18T11:52:28;16.60;98.30
57576;DHT22;43412;-33.800;150.804;2022-12-18T11:54:56;16.60;98.30
57576;DHT22;43412;-33.800;150.804;2022-12-18T12:00:23;16.70;98.30
57576;DHT22;43412;-33.800;150.804;2022-12-18T12:08:21;16.60;98.50
57576;DHT22;43412;-33.800;150.804;2022-12-18T12:13:22;16.50;98.90
57576;DHT22;43412;-33.800;150.804;2022-12-18T12:15:57;16.40;99.00
57576;DHT22;43412;-33.800;150.804;2022-12-18T12:26:31;16.10;99.90
57576;DHT22;43412;-33.800;150.804;2022-12-18T12:31:41;16.10;99.90
57576;DHT22;43412;-33.800;150.804;2022-12-18T12:36:53;16.10;99.90
57576;DHT22;43412;-33.800;150.804;2022-12-18T12:39:31;16.20;99.90
57576;DHT22;43412;-33.800;150.804;2022-12-18T12:42:00;16.30;99.90
57576;DHT22;43412;-33.800;150.804;2022-12-18T12:44:51;16.40;99.90
57576;DHT22;43412;-33.800;150.804;2022-12-18T12:47:24;16.40;99.90
57576;DHT22;43412;-33.800;150.804;2022-12-18T12:49:52;16.40;99.90
57576;DHT22;43412;-33.800;150.804;2022-12-18T12:52:33;16.40;99.90
57576;DHT22;43412;-33.800;150.804;2022-12-18T12:55:05;16.50;99.90
57576;DHT22;43412;-33.800;150.804;2022-12-18T12:57:37;16.50;99.90
57576;DHT22;43412;-33.800;150.804;2022-12-18T13:07:39;16.40;99.90
57576;DHT22;43412;-33.800;150.804;2022-12-18T13:10:22;16.40;99.90
57576;DHT22;43412;-33.800;150.804;2022-12-18T13:12:56;16.20;99.90
57576;DHT22;43412;-33.800;150.804;2022-12-18T13:18:10;16.00;99.90
57576;DHT22;43412;-33.800;150.804;2022-12-18T13:25:46;15.90;99.90
57576;DHT22;43412;-33.800;150.804;2022-12-18T13:28:14;15.90;99.90
57576;DHT22;43412;-33.800;150.804;2022-12-18T13:40:55;15.80;99.90
57576;DHT22;43412;-33.800;150.804;2022-12-18T13:45:50;15.70;99.90
57576;DHT22;43412;-33.800;150.804;2022-12-18T13:48:25;15.60;99.90
57576;DHT22;43412;-33.800;150.804;2022-12-18T13:51:03;15.70;99.90
57576;DHT22;43412;-33.800;150.804;2022-12-18T13:53:32;15.60;99.90
57576;DHT22;43412;-33.800;150.804;2022-12-18T13:55:59;15.70;99.90
57576;DHT22;43412;-33.800;150.804;2022-12-18T13:58:26;15.70;99.90
57576;DHT22;43412;-33.800;150.804;2022-12-18T14:00:53;15.70;99.90
57576;DHT22;43412;-33.800;150.804;2022-12-18T14:03:27;15.80;99.90
57576;DHT22;43412;-33.800;150.804;2022-12-18T14:06:02;15.80;99.90
57576;DHT22;43412;-33.800;150.804;2022-12-18T14:08:35;15.80;99.90
57576;DHT22;43412;-33.800;150.804;2022-12-18T14:11:03;15.80;99.90
57576;DHT22;43412;-33.800;150.804;2022-12-18T14:13:31;15.70;99.90
57576;DHT22;43412;-33.800;150.804;2022-12-18T14:16:00;15.70;99.90
57576;DHT22;43412;-33.800;150.804;2022-12-18T14:21:03;15.60;99.90
57576;DHT22;43412;-33.800;150.804;2022-12-18T14:25:57;15.50;99.90
57576;DHT22;43412;-33.800;150.804;2022-12-18T14:28:24;15.50;99.90
57576;DHT22;43412;-33.800;150.804;2022-12-18T14:30:52;15.40;99.90
57576;DHT22;43412;-33.800;150.804;2022-12-18T14:33:24;15.30;99.90
57576;DHT22;43412;-33.800;150.804;2022-12-18T14:35:53;15.30;99.90
57576;DHT22;43412;-33.800;150.804;2022-12-18T14:38:24;15.20;99.90
57576;DHT22;43412;-33.800;150.804;2022-12-18T14:40:55;15.10;99.90
57576;DHT22;43412;-33.800;150.804;2022-12-18T14:43:29;15.00;99.90
57576;DHT22;43412;-33.800;150.804;2022-12-18T14:45:56;15.00;99.90
57576;DHT22;43412;-33.800;150.804;2022-12-18T14:48:41;14.90;99.90
57576;DHT22;43412;-33.800;150.804;2022-12-18T14:51:16;14.80;99.90
57576;DHT22;43412;-33.800;150.804;2022-12-18T14:53:47;14.70;99.90
57576;DHT22;43412;-33.800;150.804;2022-12-18T14:56:16;14.70;99.90
57576;DHT22;43412;-33.800;150.804;2022-12-18T14:58:47;14.60;99.90
57576;DHT22;43412;-33.800;150.804;2022-12-18T15:01:18;14.60;99.90
57576;DHT22;43412;-33.800;150.804;2022-12-18T15:03:45;14.60;99.90
57576;DHT22;43412;-33.800;150.804;2022-12-18T15:06:15;14.60;99.90
57576;DHT22;43412;-33.800;150.804;2022-12-18T15:08:42;14.70;99.90
57576;DHT22;43412;-33.800;150.804;2022-12-18T15:11:28;14.70;99.90
57576;DHT22;43412;-33.800;150.804;2022-12-18T15:13:57;14.80;99.90
57576;DHT22;43412;-33.800;150.804;2022-12-18T15:16:23;14.90;99.90
57576;DHT22;43412;-33.800;150.804;2022-12-18T15:18:50;14.90;99.90
57576;DHT22;43412;-33.800;150.804;2022-12-18T15:21:18;15.00;99.90
57576;DHT22;43412;-33.800;150.804;2022-12-18T15:23:49;15.00;99.90
57576;DHT22;43412;-33.800;150.804;2022-12-18T15:26:18;15.10;99.90
57576;DHT22;43412;-33.800;150.804;2022-12-18T15:33:39;15.10;99.90
57576;DHT22;43412;-33.800;150.804;2022-12-18T15:36:09;15.00;99.90
57576;DHT22;43412;-33.800;150.804;2022-12-18T15:38:36;15.00;99.90
57576;DHT22;43412;-33.800;150.804;2022-12-18T15:41:11;14.90;99.90
57576;DHT22;43412;-33.800;150.804;2022-12-18T15:43:37;14.90;99.90
57576;DHT22;43412;-33.800;150.804;2022-12-18T15:46:05;14.80;99.90
57576;DHT22;43412;-33.800;150.804;2022-12-18T15:48:33;14.70;99.90
57576;DHT22;43412;-33.800;150.804;2022-12-18T15:51:00;14.60;99.90
57576;DHT22;43412;-33.800;150.804;2022-12-18T15:53:29;14.50;99.90
57576;DHT22;43412;-33.800;150.804;2022-12-18T15:55:56;14.50;99.90
57576;DHT22;43412;-33.800;150.804;2022-12-18T15:58:41;14.40;99.90
57576;DHT22;43412;-33.800;150.804;2022-12-18T16:01:08;14.50;99.90
57576;DHT22;43412;-33.800;150.804;2022-12-18T16:03:36;14.40;99.90
57576;DHT22;43412;-33.800;150.804;2022-12-18T16:06:03;14.50;99.90
57576;DHT22;43412;-33.800;150.804;2022-12-18T16:08:29;14.60;99.90
57576;DHT22;43412;-33.800;150.804;2022-12-18T16:10:56;14.60;99.90
57576;DHT22;43412;-33.800;150.804;2022-12-18T16:13:24;14.80;99.90
57576;DHT22;43412;-33.800;150.804;2022-12-18T16:15:50;14.90;99.90
57576;DHT22;43412;-33.800;150.804;2022-12-18T16:18:17;14.90;99.90
57576;DHT22;43412;-33.800;150.804;2022-12-18T16:20:44;15.00;99.90
57576;DHT22;43412;-33.800;150.804;2022-12-18T16:23:11;15.10;99.90
57576;DHT22;43412;-33.800;150.804;2022-12-18T16:25:37;15.10;99.90
57576;DHT22;43412;-33.800;150.804;2022-12-18T16:28:04;15.10;99.90
57576;DHT22;43412;-33.800;150.804;2022-12-18T16:30:31;15.20;99.90
57576;DHT22;43412;-33.800;150.804;2022-12-18T16:32:59;15.20;99.90
57576;DHT22;43412;-33.800;150.804;2022-12-18T16:35:26;15.20;99.90
57576;DHT22;43412;-33.800;150.804;2022-12-18T16:37:53;15.20;99.90
57576;DHT22;43412;-33.800;150.804;2022-12-18T16:40:19;15.20;99.90
57576;DHT22;43412;-33.800;150.804;2022-12-18T16:42:46;15.20;99.90
57576;DHT22;43412;-33.800;150.804;2022-12-18T16:45:14;15.20;99.90
57576;DHT22;43412;-33.800;150.804;2022-12-18T16:47:41;15.20;99.90
57576;DHT22;43412;-33.800;150.804;2022-12-18T16:50:08;15.20;99.90
57576;DHT22;43412;-33.800;150.804;2022-12-18T16:52:35;15.30;99.90
57576;DHT22;43412;-33.800;150.804;2022-12-18T16:55:02;15.30;99.90